»·PEaware :: N913K KSNA-L71

N913K :: KSNA-L71

FLIGHT INFORMATION

Flight Status: Arrived
Operator: Privately registered:
United States
More flights under this callsign
Pilot: Norberto G. (3795)
Aircraft: BRITISH AERO BAe-3200 JETSTREAM SUPER 31
(JS32)
More flights by this aircraft type
Origin: KSNA John Wayne-Orange Co
United States
Destination: L71 California City Mun
United States
More flights between these airports :: More routes between these airports
Route: +SLI V459 BERRI V201 PMD ROSIE
File this flight plan on PilotEdge
Remarks:
Altitude:
(Current/Filed)
11,000ft
Speed:
(Current/Filed)
230kts
Departed: 14-Mar-17 10:55 AM
Arrived: 14-Mar-17 11:35 AM
Distance/Time
Traveled:
89nm/0:39
Distance/Time
To Go:
Arrived

Flight Plot

Page will automatically refresh every two minutes.

Flight plan parsing failed; only flown route is shown


Map Options




Map Legend


Flown Route
Filed Route
Departure Airport
Arrival Airport
Navaid (VOR, NDB)
Fix

Horizontal Profiles

Position Reports

Time Latitude Longitude Heading Altitude Ground
Speed
14-Mar-17 10:39 33.670875 -117.867581 32 59ft 0kts
14-Mar-17 10:40 33.670875 -117.867581 32 59ft 0kts
14-Mar-17 10:41 33.670875 -117.867581 32 59ft 0kts
14-Mar-17 10:42 33.670875 -117.867581 32 59ft 0kts
14-Mar-17 10:43 33.670875 -117.867581 32 59ft 0kts
14-Mar-17 10:44 33.670875 -117.867581 32 59ft 0kts
14-Mar-17 10:45 33.670875 -117.867581 32 59ft 0kts
14-Mar-17 10:46 33.670875 -117.867581 32 59ft 0kts
14-Mar-17 10:47 33.670875 -117.867581 32 59ft 0kts
14-Mar-17 10:48 33.670875 -117.867581 32 59ft 0kts
14-Mar-17 10:49 33.670978 -117.867563 353 59ft 3kts
14-Mar-17 10:50 33.671382 -117.868051 304 59ft 0kts
14-Mar-17 10:51 33.671382 -117.868051 304 59ft 0kts
14-Mar-17 10:52 33.675237 -117.865822 26 59ft 28kts
14-Mar-17 10:53 33.680628 -117.863026 298 59ft 0kts
14-Mar-17 10:54 33.680628 -117.863026 298 59ft 0kts
14-Mar-17 10:55 33.681280 -117.864528 293 59ft 15kts
14-Mar-17 10:56 33.656782 -117.879171 187 767ft 161kts
14-Mar-17 10:57 33.607780 -117.884120 182 2750ft 189kts
14-Mar-17 10:58 33.560244 -117.903281 257 4606ft 197kts
14-Mar-17 10:59 33.549884 -117.965282 258 6858ft 195kts
14-Mar-17 11:00 33.539536 -118.033735 264 8115ft 233kts
14-Mar-17 11:01 33.531353 -118.117329 258 7767ft 269kts
14-Mar-17 11:02 33.540148 -118.200455 315 8940ft 252kts
14-Mar-17 11:03 33.598202 -118.187695 30 10482ft 240kts
14-Mar-17 11:04 33.657418 -118.145040 30 10999ft 263kts
14-Mar-17 11:05 33.722214 -118.098592 30 11037ft 277kts
14-Mar-17 11:06 33.788902 -118.051799 26 11033ft 275kts
14-Mar-17 11:07 33.860701 -118.068375 340 11035ft 268kts
14-Mar-17 11:08 33.927444 -118.104196 321 10992ft 266kts
14-Mar-17 11:09 33.980558 -118.165547 313 10990ft 264kts
14-Mar-17 11:10 34.045419 -118.206461 332 10998ft 265kts
14-Mar-17 11:11 34.111731 -118.245170 332 11002ft 265kts
14-Mar-17 11:12 34.178059 -118.283938 331 11010ft 265kts
14-Mar-17 11:13 34.245060 -118.273264 28 11013ft 266kts
14-Mar-17 11:14 34.311722 -118.233665 21 11033ft 270kts
14-Mar-17 11:15 34.380713 -118.196633 18 11064ft 272kts
14-Mar-17 11:16 34.449613 -118.160297 17 11086ft 270kts
14-Mar-17 11:17 34.518349 -118.124013 17 11098ft 270kts
14-Mar-17 11:18 34.588553 -118.106074 341 10458ft 257kts
14-Mar-17 11:19 34.648509 -118.142932 327 10535ft 246kts
14-Mar-17 11:20 34.709186 -118.183266 322 10603ft 252kts
14-Mar-17 11:21 34.766949 -118.229079 334 10531ft 244kts
14-Mar-17 11:22 34.832041 -118.231315 1 10512ft 233kts
14-Mar-17 11:23 34.893976 -118.211686 13 10082ft 245kts
14-Mar-17 11:24 34.958584 -118.184574 16 8861ft 242kts
14-Mar-17 11:25 35.018828 -118.155807 22 7508ft 227kts
14-Mar-17 11:26 35.068251 -118.108436 40 6072ft 224kts
14-Mar-17 11:27 35.110453 -118.054265 44 4841ft 216kts
14-Mar-17 11:28 35.156963 -118.020465 352 4129ft 176kts
14-Mar-17 11:29 35.192213 -118.038959 254 3953ft 162kts
14-Mar-17 11:30 35.166593 -118.017024 63 3940ft 149kts
14-Mar-17 11:31 35.161717 -117.986424 233 2875ft 120kts
14-Mar-17 11:32 35.148479 -118.025881 248 3684ft 141kts
14-Mar-17 11:33 35.174630 -118.036698 69 3782ft 158kts
14-Mar-17 11:34 35.177867 -117.986075 88 3730ft 145kts
14-Mar-17 11:35 35.156212 -117.989789 268 2660ft 119kts
14-Mar-17 11:36 35.151002 -118.016333 170 2438ft 13kts
14-Mar-17 11:37 35.149627 -118.016250 262 2439ft 2kts
14-Mar-17 11:38 35.149627 -118.016253 262 2439ft 0kts

Navigation Log

Ident Type
Flight plan parsing failed, navigation log unavailable